createdAt,value
2023-04-26T00:00:13.260Z,4.90
2023-04-26T00:02:40.543Z,4.80
2023-04-26T00:05:09.066Z,4.70
2023-04-26T00:07:38.029Z,4.70
2023-04-26T00:10:06.381Z,4.60
2023-04-26T00:12:33.204Z,4.50
2023-04-26T00:14:59.896Z,4.50
2023-04-26T00:17:26.547Z,4.40
2023-04-26T00:19:53.333Z,4.40
2023-04-26T00:22:20.130Z,4.30
2023-04-26T00:24:47.055Z,4.30
2023-04-26T00:27:13.672Z,4.30
2023-04-26T00:29:40.382Z,4.30
2023-04-26T00:32:07.044Z,4.20
2023-04-26T00:34:35.858Z,4.30
2023-04-26T00:37:03.363Z,4.20
2023-04-26T00:39:30.597Z,4.20
2023-04-26T00:41:58.006Z,4.20
2023-04-26T00:44:24.755Z,4.10
2023-04-26T00:46:53.724Z,4.10
2023-04-26T00:49:23.027Z,4.10
2023-04-26T00:51:51.899Z,4.00
2023-04-26T00:54:20.791Z,4.00
2023-04-26T00:56:48.254Z,3.90
2023-04-26T00:59:14.895Z,3.90
2023-04-26T01:01:42.622Z,3.80
2023-04-26T01:04:09.402Z,3.80
2023-04-26T01:06:38.341Z,3.70
2023-04-26T01:09:08.263Z,3.70
2023-04-26T01:11:36.977Z,3.60
2023-04-26T01:14:05.372Z,3.60
2023-04-26T01:16:33.325Z,3.60
2023-04-26T01:19:07.851Z,3.60
2023-04-26T01:21:34.469Z,3.50
2023-04-26T01:24:01.624Z,3.50
2023-04-26T01:26:28.244Z,3.40
2023-04-26T01:28:55.123Z,3.30
2023-04-26T01:31:22.089Z,3.30
2023-04-26T01:33:48.805Z,3.20
2023-04-26T01:36:15.475Z,3.20
2023-04-26T01:38:42.098Z,3.20
2023-04-26T01:41:08.708Z,3.10
2023-04-26T01:43:35.373Z,3.10
2023-04-26T01:46:02.134Z,3.10
2023-04-26T01:48:28.789Z,3.00
2023-04-26T01:50:55.422Z,3.00
2023-04-26T01:53:22.117Z,2.90
2023-04-26T01:55:48.725Z,2.90
2023-04-26T01:58:16.680Z,2.90
2023-04-26T02:00:43.298Z,2.80
2023-04-26T02:03:10.054Z,2.80
2023-04-26T02:05:36.717Z,2.80
2023-04-26T02:08:04.361Z,2.80
2023-04-26T02:10:30.988Z,2.70
2023-04-26T02:12:57.616Z,2.70
2023-04-26T02:15:24.205Z,2.70
2023-04-26T02:17:50.853Z,2.80
2023-04-26T02:20:17.609Z,2.80
2023-04-26T02:22:44.229Z,2.80
2023-04-26T02:25:11.778Z,2.80
2023-04-26T02:27:38.507Z,2.80
2023-04-26T02:30:05.871Z,2.80
2023-04-26T02:32:32.508Z,2.70
2023-04-26T02:34:59.230Z,2.70
2023-04-26T02:37:26.628Z,2.60
2023-04-26T02:39:53.391Z,2.50
2023-04-26T02:42:20.139Z,2.50
2023-04-26T02:44:46.810Z,2.40
2023-04-26T02:47:16.760Z,2.40
2023-04-26T02:49:43.389Z,2.70
2023-04-26T02:52:10.153Z,2.30
2023-04-26T02:54:36.746Z,2.20
2023-04-26T02:57:03.663Z,2.20
2023-04-26T02:59:30.290Z,2.10
2023-04-26T03:01:56.999Z,2.10
2023-04-26T03:04:23.794Z,2.10
2023-04-26T03:06:50.449Z,2.00
2023-04-26T03:09:17.694Z,2.00
2023-04-26T03:11:44.297Z,1.90
2023-04-26T03:14:10.903Z,1.90
2023-04-26T03:16:44.632Z,1.90
2023-04-26T03:19:11.497Z,1.80
2023-04-26T03:21:38.098Z,1.70
2023-04-26T03:24:05.151Z,1.70
2023-04-26T03:26:31.776Z,1.70
2023-04-26T03:28:58.395Z,2.00
2023-04-26T03:31:25.260Z,1.60
2023-04-26T03:33:52.022Z,1.50
2023-04-26T03:36:19.110Z,1.50
2023-04-26T03:38:45.984Z,1.40
2023-04-26T03:41:13.480Z,1.30
2023-04-26T03:43:40.105Z,1.30
2023-04-26T03:46:06.850Z,1.20
2023-04-26T03:48:36.466Z,1.20
2023-04-26T03:51:03.662Z,1.20
2023-04-26T03:53:30.268Z,1.20
2023-04-26T03:55:57.920Z,1.20
2023-04-26T03:58:27.542Z,1.20
2023-04-26T04:00:58.377Z,1.20
2023-04-26T04:03:25.428Z,1.10
2023-04-26T04:05:52.148Z,1.10
2023-04-26T04:08:18.742Z,1.10
2023-04-26T04:10:45.475Z,1.10
2023-04-26T04:13:12.113Z,1.10
2023-04-26T04:15:38.732Z,1.00
2023-04-26T04:18:05.537Z,1.10
2023-04-26T04:20:32.199Z,1.10
2023-04-26T04:22:58.871Z,1.10
2023-04-26T04:25:25.570Z,1.10
2023-04-26T04:27:53.253Z,1.00
2023-04-26T04:30:19.946Z,1.10
2023-04-26T04:32:46.706Z,1.00
2023-04-26T04:35:14.275Z,1.00
2023-04-26T04:37:40.915Z,1.00
2023-04-26T04:40:11.510Z,1.00
2023-04-26T04:42:38.525Z,1.10
2023-04-26T04:45:05.705Z,1.00
2023-04-26T04:47:36.196Z,1.10
2023-04-26T04:50:03.911Z,1.10
2023-04-26T04:52:30.672Z,1.10
2023-04-26T04:54:57.311Z,1.10
2023-04-26T04:57:24.019Z,1.10
2023-04-26T04:59:51.173Z,1.10
2023-04-26T05:02:17.961Z,1.20
2023-04-26T05:04:44.765Z,1.20
2023-04-26T05:07:12.760Z,1.30
2023-04-26T05:09:39.412Z,1.30
2023-04-26T05:12:06.137Z,1.40
2023-04-26T05:14:32.762Z,1.60
2023-04-26T05:16:59.536Z,1.50
2023-04-26T05:19:26.184Z,1.70
2023-04-26T05:21:53.075Z,1.80
2023-04-26T05:24:19.713Z,1.90
2023-04-26T05:26:46.326Z,2.00
2023-04-26T05:29:13.067Z,2.10
2023-04-26T05:31:39.692Z,2.20
2023-04-26T05:34:06.336Z,2.40
2023-04-26T05:36:33.109Z,2.50
2023-04-26T05:38:59.764Z,2.60
2023-04-26T05:41:26.614Z,2.70
2023-04-26T05:43:53.480Z,2.80
2023-04-26T05:46:20.323Z,2.90
2023-04-26T05:48:47.077Z,3.10
2023-04-26T05:51:13.684Z,3.20
2023-04-26T05:53:40.334Z,3.40
2023-04-26T05:56:07.338Z,3.60
2023-04-26T05:58:33.919Z,3.80
2023-04-26T06:01:00.753Z,3.90
2023-04-26T06:03:27.458Z,4.10
2023-04-26T06:05:54.434Z,4.20
2023-04-26T06:08:21.161Z,4.40
2023-04-26T06:10:47.812Z,4.50
2023-04-26T06:13:14.420Z,4.60
2023-04-26T06:15:41.000Z,4.70
2023-04-26T06:18:07.825Z,4.80
2023-04-26T06:20:34.529Z,4.90
2023-04-26T06:23:01.150Z,5.00
2023-04-26T06:25:27.866Z,5.10
2023-04-26T06:27:54.632Z,5.20
2023-04-26T06:30:21.268Z,5.40
2023-04-26T06:32:47.973Z,5.60
2023-04-26T06:35:14.734Z,5.70
2023-04-26T06:37:42.028Z,5.80
2023-04-26T06:40:09.248Z,6.00
2023-04-26T06:42:36.622Z,6.00
2023-04-26T06:45:03.422Z,6.20
2023-04-26T06:47:32.536Z,6.20
2023-04-26T06:49:59.627Z,6.20
2023-04-26T06:52:26.341Z,6.30
2023-04-26T06:54:56.939Z,6.50
2023-04-26T06:57:24.382Z,6.60
2023-04-26T06:59:51.300Z,6.70
2023-04-26T07:02:18.137Z,6.80
2023-04-26T07:04:45.300Z,6.90
2023-04-26T07:07:13.679Z,7.00
2023-04-26T07:09:40.913Z,7.00
2023-04-26T07:12:07.658Z,7.10
2023-04-26T07:14:37.144Z,7.20
2023-04-26T07:17:05.182Z,7.30
2023-04-26T07:19:31.897Z,7.40
2023-04-26T07:21:58.520Z,7.60
2023-04-26T07:24:25.709Z,7.50
2023-04-26T07:26:52.374Z,7.70
2023-04-26T07:29:19.177Z,7.90
2023-04-26T07:31:46.025Z,8.00
2023-04-26T07:34:13.032Z,8.20
2023-04-26T07:36:39.704Z,8.30
2023-04-26T07:39:06.706Z,8.40
2023-04-26T07:41:33.407Z,8.30
2023-04-26T07:44:00.169Z,8.20
2023-04-26T07:46:26.863Z,8.30
2023-04-26T07:48:53.504Z,8.50
2023-04-26T07:51:20.123Z,8.70
2023-04-26T07:53:46.753Z,8.90
2023-04-26T07:56:13.564Z,9.20
2023-04-26T07:58:40.207Z,9.30
2023-04-26T08:01:07.120Z,9.10
2023-04-26T08:03:34.107Z,9.00
2023-04-26T08:06:01.674Z,9.00
2023-04-26T08:08:28.932Z,9.00
2023-04-26T08:10:56.308Z,9.10
2023-04-26T08:13:23.258Z,9.30
2023-04-26T08:15:49.988Z,9.40
2023-04-26T08:18:16.627Z,9.60
2023-04-26T08:20:43.608Z,9.80
2023-04-26T08:23:10.503Z,9.90
2023-04-26T08:25:37.196Z,9.70
2023-04-26T08:28:04.878Z,9.40
2023-04-26T08:30:31.904Z,9.30
2023-04-26T08:32:58.688Z,9.50
2023-04-26T08:35:25.368Z,9.50
2023-04-26T08:37:51.958Z,9.70
2023-04-26T08:40:23.729Z,9.60
2023-04-26T08:42:52.373Z,9.40
2023-04-26T08:45:22.996Z,9.20
2023-04-26T08:47:52.845Z,9.40
2023-04-26T08:50:22.421Z,9.80
2023-04-26T08:52:51.579Z,10.20
2023-04-26T08:55:22.683Z,10.30
2023-04-26T08:57:50.645Z,10.40
2023-04-26T09:00:19.591Z,10.30
2023-04-26T09:02:48.719Z,10.10
2023-04-26T09:05:15.534Z,10.10
2023-04-26T09:07:46.025Z,10.00
2023-04-26T09:10:16.827Z,9.90
2023-04-26T09:12:43.714Z,9.70
2023-04-26T09:15:10.817Z,9.70
2023-04-26T09:17:39.058Z,10.10
2023-04-26T09:20:21.063Z,10.30
2023-04-26T09:22:49.101Z,10.50
2023-04-26T09:25:18.296Z,10.70
2023-04-26T09:27:45.902Z,11.10
2023-04-26T09:30:17.316Z,11.10
2023-04-26T09:32:45.174Z,11.40
2023-04-26T09:35:28.573Z,11.70
2023-04-26T09:38:01.116Z,11.60
2023-04-26T09:40:33.170Z,11.40
2023-04-26T09:43:11.888Z,11.20
2023-04-26T09:45:58.965Z,11.20
2023-04-26T09:48:34.522Z,11.40
2023-04-26T09:51:03.880Z,11.30
2023-04-26T09:53:48.000Z,11.10
2023-04-26T09:56:18.845Z,11.40
2023-04-26T09:58:58.836Z,11.60
2023-04-26T10:01:28.255Z,11.60
2023-04-26T10:03:57.382Z,11.50
2023-04-26T10:06:25.092Z,11.20
2023-04-26T10:08:52.025Z,11.10
2023-04-26T10:11:20.220Z,11.40
2023-04-26T10:13:46.842Z,11.80
2023-04-26T10:16:13.522Z,12.10
2023-04-26T10:18:40.505Z,12.30
2023-04-26T10:21:22.608Z,12.50
2023-04-26T10:23:49.846Z,12.80
2023-04-26T10:26:52.738Z,12.80
2023-04-26T10:29:20.794Z,12.70
2023-04-26T10:32:02.536Z,13.00
2023-04-26T10:34:31.195Z,13.10
2023-04-26T10:37:07.686Z,12.90
2023-04-26T10:39:34.764Z,12.80
2023-04-26T10:42:24.052Z,12.80
2023-04-26T10:44:55.606Z,12.70
2023-04-26T10:47:27.694Z,12.80
2023-04-26T10:50:09.687Z,12.80
2023-04-26T10:53:05.263Z,12.60
2023-04-26T10:55:40.183Z,12.10
2023-04-26T10:58:29.813Z,11.80
2023-04-26T11:01:16.335Z,12.00
2023-04-26T11:03:59.313Z,12.40
2023-04-26T11:06:26.798Z,12.30
2023-04-26T11:08:54.333Z,12.50
2023-04-26T11:11:26.827Z,12.60
2023-04-26T11:13:53.443Z,13.20
2023-04-26T11:16:20.099Z,13.60
2023-04-26T11:18:47.679Z,13.60
2023-04-26T11:21:17.429Z,13.50
2023-04-26T11:23:53.659Z,13.20
2023-04-26T11:26:20.247Z,13.00
2023-04-26T11:28:48.820Z,12.80
2023-04-26T11:31:15.455Z,12.50
2023-04-26T11:33:42.076Z,12.40
2023-04-26T11:36:08.858Z,12.40
2023-04-26T11:38:35.690Z,12.30
2023-04-26T11:41:03.505Z,12.30
2023-04-26T11:43:40.091Z,12.30
2023-04-26T11:46:08.379Z,12.30
2023-04-26T11:48:36.639Z,12.40
2023-04-26T11:51:04.884Z,12.60
2023-04-26T11:53:41.770Z,12.60
2023-04-26T11:56:17.991Z,12.70
2023-04-26T11:58:46.422Z,12.60
2023-04-26T12:01:24.446Z,12.50
2023-04-26T12:03:58.707Z,12.50
2023-04-26T12:06:29.615Z,12.60
2023-04-26T12:08:57.074Z,12.80
2023-04-26T12:11:23.758Z,13.00
2023-04-26T12:13:50.662Z,13.20
2023-04-26T12:18:51.902Z,13.50
2023-04-26T12:21:19.393Z,13.80
2023-04-26T12:23:48.044Z,14.20
2023-04-26T12:26:15.101Z,14.30
2023-04-26T12:28:41.945Z,14.30
2023-04-26T12:31:08.895Z,14.30
2023-04-26T12:33:36.401Z,14.30
2023-04-26T12:36:11.146Z,14.30
2023-04-26T12:38:38.553Z,14.20
2023-04-26T12:41:05.891Z,14.60
2023-04-26T12:43:32.784Z,14.80
2023-04-26T12:45:59.936Z,14.90
2023-04-26T12:48:26.778Z,15.20
2023-04-26T12:50:54.094Z,15.20
2023-04-26T12:53:21.055Z,15.40
2023-04-26T12:55:47.712Z,15.60
2023-04-26T12:58:14.573Z,15.40
2023-04-26T13:00:43.286Z,15.10
2023-04-26T13:03:14.292Z,15.20
2023-04-26T13:05:41.522Z,15.10
2023-04-26T13:08:08.342Z,14.90
2023-04-26T13:10:34.980Z,14.60
2023-04-26T13:13:01.756Z,14.50
2023-04-26T13:15:29.704Z,14.50
2023-04-26T13:17:56.509Z,14.30
2023-04-26T13:20:25.077Z,14.40
2023-04-26T13:22:52.982Z,14.70
2023-04-26T13:25:19.902Z,14.80
2023-04-26T13:27:46.754Z,15.30
2023-04-26T13:30:13.987Z,15.60
2023-04-26T13:32:41.130Z,15.80
2023-04-26T13:35:08.204Z,15.90
2023-04-26T13:37:34.786Z,16.00
2023-04-26T13:40:01.673Z,15.70
2023-04-26T13:42:28.423Z,15.70
2023-04-26T13:44:55.129Z,15.60
2023-04-26T13:47:21.924Z,15.10
2023-04-26T13:49:48.620Z,14.80
2023-04-26T13:52:15.538Z,14.90
2023-04-26T13:54:42.167Z,15.40
2023-04-26T13:57:08.872Z,15.70
2023-04-26T13:59:35.509Z,16.00
2023-04-26T14:02:02.278Z,16.20
2023-04-26T14:04:29.784Z,16.50
2023-04-26T14:06:57.033Z,16.80
2023-04-26T14:09:23.663Z,16.90
2023-04-26T14:12:04.449Z,16.80
2023-04-26T14:14:34.469Z,16.30
2023-04-26T14:17:01.552Z,15.70
2023-04-26T14:19:28.234Z,15.40
2023-04-26T14:21:54.833Z,15.60
2023-04-26T14:24:21.425Z,15.70
2023-04-26T14:26:48.199Z,15.90
2023-04-26T14:29:14.797Z,15.90
2023-04-26T14:31:42.042Z,15.50
2023-04-26T14:34:08.691Z,15.20
2023-04-26T14:36:35.603Z,14.90
2023-04-26T14:39:02.275Z,15.00
2023-04-26T14:41:28.874Z,15.00
2023-04-26T14:43:56.009Z,16.20
2023-04-26T14:46:22.863Z,18.00
2023-04-26T14:48:49.637Z,19.20
2023-04-26T14:51:16.260Z,19.70
2023-04-26T14:53:42.862Z,20.10
2023-04-26T14:56:09.587Z,20.30
2023-04-26T14:58:36.274Z,19.90
2023-04-26T15:01:03.460Z,19.70
2023-04-26T15:03:30.411Z,19.60
2023-04-26T15:05:57.139Z,19.10
2023-04-26T15:08:23.780Z,18.80
2023-04-26T15:10:51.366Z,18.30
2023-04-26T15:13:18.339Z,17.90
2023-04-26T15:15:45.285Z,17.20
2023-04-26T15:18:11.942Z,16.50
2023-04-26T15:20:40.316Z,16.40
2023-04-26T15:23:07.681Z,16.90
2023-04-26T15:25:36.414Z,17.40
2023-04-26T15:28:03.641Z,17.40
2023-04-26T15:30:30.678Z,17.60
2023-04-26T15:32:57.610Z,17.60
2023-04-26T15:35:24.859Z,17.10
2023-04-26T15:37:53.640Z,16.60
2023-04-26T15:40:21.179Z,16.20
2023-04-26T15:42:49.129Z,15.80
2023-04-26T15:45:15.914Z,15.40
2023-04-26T15:47:42.684Z,15.90
2023-04-26T15:50:09.755Z,17.10
2023-04-26T15:52:39.281Z,18.10
2023-04-26T15:55:09.859Z,18.20
2023-04-26T15:57:37.547Z,18.00
2023-04-26T16:00:08.177Z,17.70
2023-04-26T16:02:34.915Z,17.10
2023-04-26T16:05:01.837Z,16.50
2023-04-26T16:07:29.323Z,15.90
2023-04-26T16:09:56.076Z,15.30
2023-04-26T16:12:22.702Z,14.90
2023-04-26T16:14:51.113Z,14.70
2023-04-26T16:17:17.891Z,14.50
2023-04-26T16:19:44.480Z,14.20
2023-04-26T16:22:11.118Z,14.10
2023-04-26T16:24:37.727Z,14.20
2023-04-26T16:27:04.642Z,14.40
2023-04-26T16:29:31.458Z,14.50
2023-04-26T16:31:58.621Z,14.90
2023-04-26T16:34:26.739Z,15.00
2023-04-26T16:36:53.336Z,15.30
2023-04-26T16:39:20.117Z,15.70
2023-04-26T16:41:46.770Z,16.10
2023-04-26T16:44:13.386Z,16.30
2023-04-26T16:46:40.283Z,16.20
2023-04-26T16:49:09.626Z,16.00
2023-04-26T16:51:37.922Z,15.70
2023-04-26T16:54:04.914Z,15.50
2023-04-26T16:56:32.271Z,15.40
2023-04-26T16:58:59.300Z,15.00
2023-04-26T17:01:26.014Z,14.70
2023-04-26T17:03:53.304Z,14.40
2023-04-26T17:06:20.258Z,13.90
2023-04-26T17:08:47.384Z,13.60
2023-04-26T17:11:16.094Z,13.40
2023-04-26T17:13:43.215Z,13.10
2023-04-26T17:16:10.172Z,12.80
2023-04-26T17:18:37.162Z,12.60
2023-04-26T17:21:04.775Z,12.60
2023-04-26T17:23:32.776Z,12.50
2023-04-26T17:25:59.734Z,12.40
2023-04-26T17:28:26.652Z,12.30
2023-04-26T17:30:53.521Z,12.30
2023-04-26T17:33:20.511Z,12.20
2023-04-26T17:35:47.378Z,12.10
2023-04-26T17:38:14.009Z,12.00
2023-04-26T17:40:40.615Z,11.90
2023-04-26T17:43:07.225Z,11.80
2023-04-26T17:45:33.905Z,11.70
2023-04-26T17:48:00.566Z,11.60
2023-04-26T17:50:27.219Z,11.50
2023-04-26T17:52:54.060Z,11.40
2023-04-26T17:55:21.063Z,11.20
2023-04-26T17:57:47.713Z,11.20
2023-04-26T18:00:14.871Z,11.10
2023-04-26T18:02:42.020Z,11.00
2023-04-26T18:05:09.115Z,10.90
2023-04-26T18:07:35.955Z,10.80
2023-04-26T18:10:03.971Z,10.70
2023-04-26T18:12:31.773Z,10.70
2023-04-26T18:14:58.413Z,10.50
2023-04-26T18:17:25.641Z,10.50
2023-04-26T18:19:52.426Z,10.40
2023-04-26T18:22:19.483Z,10.30
2023-04-26T18:24:47.340Z,10.10
2023-04-26T18:27:14.259Z,10.00
2023-04-26T18:29:41.315Z,9.90
2023-04-26T18:32:07.982Z,9.80
2023-04-26T18:34:34.571Z,9.60
2023-04-26T18:37:01.301Z,9.50
2023-04-26T18:39:27.932Z,9.50
2023-04-26T18:41:54.564Z,9.40
2023-04-26T18:44:21.198Z,9.20
2023-04-26T18:46:48.110Z,9.20
2023-04-26T18:49:14.820Z,9.00
2023-04-26T18:51:41.680Z,8.90
2023-04-26T18:54:08.335Z,8.80
2023-04-26T18:56:34.986Z,8.70
2023-04-26T18:59:01.694Z,8.60
2023-04-26T19:01:28.573Z,8.50
2023-04-26T19:03:55.682Z,8.40
2023-04-26T19:06:22.471Z,8.30
2023-04-26T19:08:49.111Z,8.20
2023-04-26T19:11:15.796Z,8.10
2023-04-26T19:13:42.748Z,8.00
2023-04-26T19:16:10.032Z,8.00
2023-04-26T19:18:37.310Z,7.90
2023-04-26T19:21:08.154Z,7.80
2023-04-26T19:23:35.339Z,7.70
2023-04-26T19:26:06.786Z,7.60
2023-04-26T19:28:33.706Z,7.60
2023-04-26T19:31:01.459Z,7.40
2023-04-26T19:33:28.719Z,7.40
2023-04-26T19:35:58.467Z,7.30
2023-04-26T19:38:25.652Z,7.20
2023-04-26T19:40:52.879Z,7.10
2023-04-26T19:43:19.800Z,7.00
2023-04-26T19:45:46.778Z,7.00
2023-04-26T19:48:13.702Z,6.90
2023-04-26T19:50:46.144Z,6.80
2023-04-26T19:53:14.620Z,6.70
2023-04-26T19:55:42.301Z,6.60
2023-04-26T19:58:10.496Z,6.60
2023-04-26T20:00:38.409Z,6.50
2023-04-26T20:03:05.535Z,6.40
2023-04-26T20:05:32.359Z,6.40
2023-04-26T20:07:59.035Z,6.30
2023-04-26T20:10:25.954Z,6.30
2023-04-26T20:12:53.457Z,6.30
2023-04-26T20:15:20.202Z,6.20
2023-04-26T20:17:46.984Z,6.10
2023-04-26T20:20:14.222Z,6.00
2023-04-26T20:22:41.494Z,5.90
2023-04-26T20:25:08.538Z,5.90
2023-04-26T20:27:35.239Z,5.80
2023-04-26T20:30:02.322Z,5.70
2023-04-26T20:32:29.016Z,5.70
2023-04-26T20:34:55.669Z,5.60
2023-04-26T20:37:22.447Z,5.50
2023-04-26T20:39:49.283Z,5.50
2023-04-26T20:42:16.122Z,5.40
2023-04-26T20:44:43.076Z,5.40
2023-04-26T20:47:09.698Z,5.30
2023-04-26T20:49:36.508Z,5.20
2023-04-26T20:52:03.339Z,5.10
2023-04-26T20:54:29.978Z,5.00
2023-04-26T20:56:56.609Z,5.00
2023-04-26T20:59:25.165Z,5.10
2023-04-26T21:01:53.489Z,4.90
2023-04-26T21:04:20.558Z,4.90
2023-04-26T21:06:47.567Z,4.80
2023-04-26T21:09:14.358Z,4.80
2023-04-26T21:11:41.342Z,4.70
2023-04-26T21:14:08.956Z,4.70
2023-04-26T21:16:35.752Z,4.70
2023-04-26T21:19:02.494Z,4.70
2023-04-26T21:21:29.089Z,4.70
2023-04-26T21:23:55.810Z,4.70
2023-04-26T21:26:22.458Z,4.60
2023-04-26T21:28:49.188Z,4.50
2023-04-26T21:31:15.966Z,4.50
2023-04-26T21:33:42.597Z,4.50
2023-04-26T21:36:09.345Z,4.50
2023-04-26T21:38:39.602Z,4.50
2023-04-26T21:41:06.590Z,4.50
2023-04-26T21:43:33.270Z,4.60
2023-04-26T21:45:59.930Z,4.50
2023-04-26T21:48:26.702Z,4.60
2023-04-26T21:50:53.424Z,4.60
2023-04-26T21:53:20.397Z,4.70
2023-04-26T21:55:54.023Z,4.70
2023-04-26T21:58:21.533Z,4.70
2023-04-26T22:00:48.932Z,4.60
2023-04-26T22:03:20.047Z,4.70
2023-04-26T22:05:46.879Z,4.70
2023-04-26T22:08:13.558Z,4.60
2023-04-26T22:10:40.351Z,4.60
2023-04-26T22:13:06.952Z,4.60
2023-04-26T22:15:33.610Z,4.60
2023-04-26T22:18:00.216Z,4.60
2023-04-26T22:20:26.860Z,4.60
2023-04-26T22:22:53.869Z,4.60
2023-04-26T22:25:21.022Z,4.60
2023-04-26T22:27:48.058Z,4.60
2023-04-26T22:30:25.032Z,4.50
2023-04-26T22:32:54.776Z,4.60
2023-04-26T22:35:22.118Z,4.60
2023-04-26T22:37:48.823Z,4.50
2023-04-26T22:40:16.107Z,4.50
2023-04-26T22:42:42.963Z,4.40
2023-04-26T22:45:11.039Z,4.40
2023-04-26T22:47:37.950Z,4.30
2023-04-26T22:50:06.000Z,4.20
2023-04-26T22:52:32.793Z,4.20
2023-04-26T22:55:00.188Z,4.10
2023-04-26T22:57:28.404Z,4.20
2023-04-26T22:59:55.120Z,4.20
2023-04-26T23:02:21.863Z,4.20
2023-04-26T23:04:48.538Z,4.30
2023-04-26T23:07:16.270Z,4.30
2023-04-26T23:09:42.953Z,4.20
2023-04-26T23:12:09.777Z,4.20
2023-04-26T23:14:37.584Z,4.10
2023-04-26T23:17:04.386Z,4.10
2023-04-26T23:19:31.410Z,4.10
2023-04-26T23:21:58.031Z,4.10
2023-04-26T23:24:24.657Z,4.00
2023-04-26T23:26:51.280Z,4.00
2023-04-26T23:29:17.863Z,4.00
2023-04-26T23:31:44.670Z,3.90
2023-04-26T23:34:11.342Z,3.90
2023-04-26T23:36:38.008Z,4.00
2023-04-26T23:39:04.630Z,4.00
2023-04-26T23:41:31.266Z,4.00
2023-04-26T23:43:57.887Z,3.90
2023-04-26T23:46:24.607Z,3.90
2023-04-26T23:48:51.217Z,3.90
2023-04-26T23:51:17.839Z,3.90
2023-04-26T23:53:44.921Z,3.90
2023-04-26T23:56:11.651Z,3.90
2023-04-26T23:58:38.379Z,3.80
